sensor_id;sensor_type;location;lat;lon;timestamp;temperature;humidity
2767;DHT22;1391;46.742;11.636;2023-02-21T00:01:39;1.50;90.10
2767;DHT22;1391;46.742;11.636;2023-02-21T00:04:24;1.50;89.80
2767;DHT22;1391;46.742;11.636;2023-02-21T00:07:09;1.90;90.00
2767;DHT22;1391;46.742;11.636;2023-02-21T00:09:54;1.90;88.50
2767;DHT22;1391;46.742;11.636;2023-02-21T00:12:39;1.80;86.10
2767;DHT22;1391;46.742;11.636;2023-02-21T00:15:25;1.80;87.80
2767;DHT22;1391;46.742;11.636;2023-02-21T00:18:10;1.90;88.30
2767;DHT22;1391;46.742;11.636;2023-02-21T00:20:55;1.80;89.10
2767;DHT22;1391;46.742;11.636;2023-02-21T00:23:40;1.30;86.50
2767;DHT22;1391;46.742;11.636;2023-02-21T00:26:24;1.30;87.80
2767;DHT22;1391;46.742;11.636;2023-02-21T00:29:10;1.40;88.30
2767;DHT22;1391;46.742;11.636;2023-02-21T00:31:56;1.30;88.20
2767;DHT22;1391;46.742;11.636;2023-02-21T00:34:41;1.20;87.50
2767;DHT22;1391;46.742;11.636;2023-02-21T00:37:27;0.90;90.20
2767;DHT22;1391;46.742;11.636;2023-02-21T00:40:14;1.50;90.60
2767;DHT22;1391;46.742;11.636;2023-02-21T00:42:59;1.60;90.80
2767;DHT22;1391;46.742;11.636;2023-02-21T00:45:44;1.30;90.20
2767;DHT22;1391;46.742;11.636;2023-02-21T00:48:30;1.30;90.80
2767;DHT22;1391;46.742;11.636;2023-02-21T00:51:16;1.30;90.60
2767;DHT22;1391;46.742;11.636;2023-02-21T00:54:00;1.80;90.30
2767;DHT22;1391;46.742;11.636;2023-02-21T00:56:45;1.30;89.00
2767;DHT22;1391;46.742;11.636;2023-02-21T00:59:30;1.20;87.70
2767;DHT22;1391;46.742;11.636;2023-02-21T01:02:15;1.50;88.40
2767;DHT22;1391;46.742;11.636;2023-02-21T01:05:01;1.10;89.00
2767;DHT22;1391;46.742;11.636;2023-02-21T01:07:46;1.10;91.30
2767;DHT22;1391;46.742;11.636;2023-02-21T01:10:31;1.20;91.90
2767;DHT22;1391;46.742;11.636;2023-02-21T01:13:16;1.60;91.40
2767;DHT22;1391;46.742;11.636;2023-02-21T01:16:00;1.70;90.70
2767;DHT22;1391;46.742;11.636;2023-02-21T01:18:45;1.80;90.30
2767;DHT22;1391;46.742;11.636;2023-02-21T01:21:31;1.60;89.80
2767;DHT22;1391;46.742;11.636;2023-02-21T01:24:16;1.30;88.50
2767;DHT22;1391;46.742;11.636;2023-02-21T01:27:02;1.10;90.50
2767;DHT22;1391;46.742;11.636;2023-02-21T01:29:47;1.00;91.90
2767;DHT22;1391;46.742;11.636;2023-02-21T01:32:31;1.40;92.00
2767;DHT22;1391;46.742;11.636;2023-02-21T01:35:16;1.20;91.20
2767;DHT22;1391;46.742;11.636;2023-02-21T01:38:02;1.20;91.80
2767;DHT22;1391;46.742;11.636;2023-02-21T01:40:47;1.20;91.50
2767;DHT22;1391;46.742;11.636;2023-02-21T01:43:32;1.30;91.40
2767;DHT22;1391;46.742;11.636;2023-02-21T01:46:17;1.20;91.20
2767;DHT22;1391;46.742;11.636;2023-02-21T01:49:07;1.20;91.10
2767;DHT22;1391;46.742;11.636;2023-02-21T01:51:54;0.90;91.60
2767;DHT22;1391;46.742;11.636;2023-02-21T01:54:44;0.90;92.00
2767;DHT22;1391;46.742;11.636;2023-02-21T01:57:32;1.50;92.10
2767;DHT22;1391;46.742;11.636;2023-02-21T02:00:17;0.90;91.90
2767;DHT22;1391;46.742;11.636;2023-02-21T02:03:03;0.90;90.90
2767;DHT22;1391;46.742;11.636;2023-02-21T02:05:54;1.20;92.20
2767;DHT22;1391;46.742;11.636;2023-02-21T02:08:41;1.20;91.70
2767;DHT22;1391;46.742;11.636;2023-02-21T02:11:43;0.60;91.60
2767;DHT22;1391;46.742;11.636;2023-02-21T02:15:01;0.50;91.80
2767;DHT22;1391;46.742;11.636;2023-02-21T02:17:46;0.60;92.50
2767;DHT22;1391;46.742;11.636;2023-02-21T02:27:39;1.00;92.20
2767;DHT22;1391;46.742;11.636;2023-02-21T02:37:09;1.10;92.50
2767;DHT22;1391;46.742;11.636;2023-02-21T02:39:46;0.70;91.10
2767;DHT22;1391;46.742;11.636;2023-02-21T02:42:25;0.90;91.40
2767;DHT22;1391;46.742;11.636;2023-02-21T02:45:02;0.50;91.60
2767;DHT22;1391;46.742;11.636;2023-02-21T02:47:35;0.50;92.00
2767;DHT22;1391;46.742;11.636;2023-02-21T02:50:05;0.90;92.10
2767;DHT22;1391;46.742;11.636;2023-02-21T02:52:35;0.50;92.50
2767;DHT22;1391;46.742;11.636;2023-02-21T02:55:19;0.50;91.80
2767;DHT22;1391;46.742;11.636;2023-02-21T02:57:50;0.30;91.70
2767;DHT22;1391;46.742;11.636;2023-02-21T03:00:18;0.50;92.50
2767;DHT22;1391;46.742;11.636;2023-02-21T03:02:57;0.50;92.50
2767;DHT22;1391;46.742;11.636;2023-02-21T03:05:42;0.50;92.40
2767;DHT22;1391;46.742;11.636;2023-02-21T03:08:25;0.50;92.30
2767;DHT22;1391;46.742;11.636;2023-02-21T03:11:01;0.50;92.70
2767;DHT22;1391;46.742;11.636;2023-02-21T03:13:39;0.70;92.70
2767;DHT22;1391;46.742;11.636;2023-02-21T03:16:15;0.80;92.70
2767;DHT22;1391;46.742;11.636;2023-02-21T03:18:47;0.50;92.80
2767;DHT22;1391;46.742;11.636;2023-02-21T03:21:20;0.90;92.50
2767;DHT22;1391;46.742;11.636;2023-02-21T03:23:52;0.50;92.60
2767;DHT22;1391;46.742;11.636;2023-02-21T03:26:22;0.50;92.20
2767;DHT22;1391;46.742;11.636;2023-02-21T03:28:51;-0.10;91.90
2767;DHT22;1391;46.742;11.636;2023-02-21T03:31:25;0.20;93.00
2767;DHT22;1391;46.742;11.636;2023-02-21T03:33:57;0.50;93.10
2767;DHT22;1391;46.742;11.636;2023-02-21T03:36:26;0.30;93.10
2767;DHT22;1391;46.742;11.636;2023-02-21T03:38:55;0.50;93.30
2767;DHT22;1391;46.742;11.636;2023-02-21T03:41:23;0.30;93.20
2767;DHT22;1391;46.742;11.636;2023-02-21T03:43:50;0.10;92.40
2767;DHT22;1391;46.742;11.636;2023-02-21T03:46:17;0.20;93.20
2767;DHT22;1391;46.742;11.636;2023-02-21T03:48:45;0.20;93.50
2767;DHT22;1391;46.742;11.636;2023-02-21T03:51:13;0.30;92.50
2767;DHT22;1391;46.742;11.636;2023-02-21T03:53:41;0.30;93.00
2767;DHT22;1391;46.742;11.636;2023-02-21T03:56:10;0.10;92.70
2767;DHT22;1391;46.742;11.636;2023-02-21T03:58:38;0.20;92.60
2767;DHT22;1391;46.742;11.636;2023-02-21T04:01:06;-0.20;91.40
2767;DHT22;1391;46.742;11.636;2023-02-21T04:03:33;-0.20;92.70
2767;DHT22;1391;46.742;11.636;2023-02-21T04:06:01;0.40;93.30
2767;DHT22;1391;46.742;11.636;2023-02-21T04:08:29;0.50;92.70
2767;DHT22;1391;46.742;11.636;2023-02-21T04:10:56;0.20;92.30
2767;DHT22;1391;46.742;11.636;2023-02-21T04:13:25;0.20;92.70
2767;DHT22;1391;46.742;11.636;2023-02-21T04:15:52;0.40;93.00
2767;DHT22;1391;46.742;11.636;2023-02-21T04:18:19;0.80;93.20
2767;DHT22;1391;46.742;11.636;2023-02-21T04:20:47;0.60;93.20
2767;DHT22;1391;46.742;11.636;2023-02-21T04:23:18;0.60;92.80
2767;DHT22;1391;46.742;11.636;2023-02-21T04:25:47;0.20;92.40
2767;DHT22;1391;46.742;11.636;2023-02-21T04:28:14;0.10;91.60
2767;DHT22;1391;46.742;11.636;2023-02-21T04:30:43;0.20;91.80
2767;DHT22;1391;46.742;11.636;2023-02-21T04:33:11;0.40;92.10
2767;DHT22;1391;46.742;11.636;2023-02-21T04:35:39;0.20;92.40
2767;DHT22;1391;46.742;11.636;2023-02-21T04:38:07;0.00;93.00
2767;DHT22;1391;46.742;11.636;2023-02-21T04:40:35;0.00;93.40
2767;DHT22;1391;46.742;11.636;2023-02-21T04:43:03;0.20;93.60
2767;DHT22;1391;46.742;11.636;2023-02-21T04:45:30;0.50;93.70
2767;DHT22;1391;46.742;11.636;2023-02-21T04:47:59;0.40;93.70
2767;DHT22;1391;46.742;11.636;2023-02-21T04:50:26;-0.10;92.10
2767;DHT22;1391;46.742;11.636;2023-02-21T04:52:54;-0.10;93.00
2767;DHT22;1391;46.742;11.636;2023-02-21T04:55:23;-0.10;93.30
2767;DHT22;1391;46.742;11.636;2023-02-21T04:57:50;-0.10;93.50
2767;DHT22;1391;46.742;11.636;2023-02-21T05:00:18;0.20;94.20
2767;DHT22;1391;46.742;11.636;2023-02-21T05:02:46;0.20;94.30
2767;DHT22;1391;46.742;11.636;2023-02-21T05:05:16;0.20;94.20
2767;DHT22;1391;46.742;11.636;2023-02-21T05:07:43;0.40;94.10
2767;DHT22;1391;46.742;11.636;2023-02-21T05:10:13;-0.20;93.50
2767;DHT22;1391;46.742;11.636;2023-02-21T05:12:40;-0.20;94.00
2767;DHT22;1391;46.742;11.636;2023-02-21T05:15:09;-0.30;93.70
2767;DHT22;1391;46.742;11.636;2023-02-21T05:17:39;0.10;94.80
2767;DHT22;1391;46.742;11.636;2023-02-21T05:20:08;-0.10;94.90
2767;DHT22;1391;46.742;11.636;2023-02-21T05:22:39;0.20;95.10
2767;DHT22;1391;46.742;11.636;2023-02-21T05:25:14;0.00;94.80
2767;DHT22;1391;46.742;11.636;2023-02-21T05:27:44;-0.20;94.30
2767;DHT22;1391;46.742;11.636;2023-02-21T05:30:14;0.10;94.40
2767;DHT22;1391;46.742;11.636;2023-02-21T05:32:42;0.00;92.80
2767;DHT22;1391;46.742;11.636;2023-02-21T05:35:12;0.20;94.10
2767;DHT22;1391;46.742;11.636;2023-02-21T05:37:42;-0.40;93.20
2767;DHT22;1391;46.742;11.636;2023-02-21T05:40:11;-0.20;94.60
2767;DHT22;1391;46.742;11.636;2023-02-21T05:42:41;-0.20;94.90
2767;DHT22;1391;46.742;11.636;2023-02-21T05:45:11;-0.40;93.60
2767;DHT22;1391;46.742;11.636;2023-02-21T05:47:38;-0.10;93.60
2767;DHT22;1391;46.742;11.636;2023-02-21T05:50:06;-0.10;93.90
2767;DHT22;1391;46.742;11.636;2023-02-21T05:52:34;-0.50;93.30
2767;DHT22;1391;46.742;11.636;2023-02-21T05:55:05;-0.40;93.60
2767;DHT22;1391;46.742;11.636;2023-02-21T05:57:37;-0.40;94.00
2767;DHT22;1391;46.742;11.636;2023-02-21T06:00:06;-0.30;94.40
2767;DHT22;1391;46.742;11.636;2023-02-21T06:02:39;-0.40;94.60
2767;DHT22;1391;46.742;11.636;2023-02-21T06:05:07;-0.40;94.50
2767;DHT22;1391;46.742;11.636;2023-02-21T06:07:35;-0.40;95.10
2767;DHT22;1391;46.742;11.636;2023-02-21T06:10:04;0.00;95.20
2767;DHT22;1391;46.742;11.636;2023-02-21T06:12:32;-0.30;93.40
2767;DHT22;1391;46.742;11.636;2023-02-21T06:15:00;-0.10;94.70
2767;DHT22;1391;46.742;11.636;2023-02-21T06:17:28;0.10;94.60
2767;DHT22;1391;46.742;11.636;2023-02-21T06:19:55;-0.20;94.50
2767;DHT22;1391;46.742;11.636;2023-02-21T06:22:23;-0.10;94.10
2767;DHT22;1391;46.742;11.636;2023-02-21T06:24:50;-0.10;93.90
2767;DHT22;1391;46.742;11.636;2023-02-21T06:27:20;0.10;93.90
2767;DHT22;1391;46.742;11.636;2023-02-21T06:29:47;0.10;93.70
2767;DHT22;1391;46.742;11.636;2023-02-21T06:32:15;-0.20;93.70
2767;DHT22;1391;46.742;11.636;2023-02-21T06:34:43;-0.20;93.90
2767;DHT22;1391;46.742;11.636;2023-02-21T06:37:11;-0.10;93.70
2767;DHT22;1391;46.742;11.636;2023-02-21T06:39:38;-0.10;93.80
2767;DHT22;1391;46.742;11.636;2023-02-21T06:42:06;-0.10;94.10
2767;DHT22;1391;46.742;11.636;2023-02-21T06:44:35;-0.10;94.00
2767;DHT22;1391;46.742;11.636;2023-02-21T06:47:02;-0.10;93.10
2767;DHT22;1391;46.742;11.636;2023-02-21T06:49:30;-0.10;94.10
2767;DHT22;1391;46.742;11.636;2023-02-21T06:51:57;-0.10;94.00
2767;DHT22;1391;46.742;11.636;2023-02-21T06:54:25;-0.10;93.40
2767;DHT22;1391;46.742;11.636;2023-02-21T06:56:54;-0.10;93.80
2767;DHT22;1391;46.742;11.636;2023-02-21T06:59:22;-0.30;94.20
2767;DHT22;1391;46.742;11.636;2023-02-21T07:01:51;-0.20;94.60
2767;DHT22;1391;46.742;11.636;2023-02-21T07:04:18;-0.20;94.50
2767;DHT22;1391;46.742;11.636;2023-02-21T07:06:46;-0.20;94.40
2767;DHT22;1391;46.742;11.636;2023-02-21T07:09:14;-0.10;94.50
2767;DHT22;1391;46.742;11.636;2023-02-21T07:11:42;-0.20;94.30
2767;DHT22;1391;46.742;11.636;2023-02-21T07:14:11;0.30;94.40
2767;DHT22;1391;46.742;11.636;2023-02-21T07:16:39;-0.10;93.50
2767;DHT22;1391;46.742;11.636;2023-02-21T07:19:08;-0.20;93.60
2767;DHT22;1391;46.742;11.636;2023-02-21T07:21:40;-0.10;93.60
2767;DHT22;1391;46.742;11.636;2023-02-21T09:03:33;7.80;44.40
2767;DHT22;1391;46.742;11.636;2023-02-21T09:06:00;8.20;44.60
2767;DHT22;1391;46.742;11.636;2023-02-21T09:08:28;8.20;42.80
2767;DHT22;1391;46.742;11.636;2023-02-21T09:10:56;8.20;43.70
2767;DHT22;1391;46.742;11.636;2023-02-21T09:13:26;9.00;42.80
2767;DHT22;1391;46.742;11.636;2023-02-21T09:15:53;9.00;42.70
2767;DHT22;1391;46.742;11.636;2023-02-21T09:18:22;8.90;41.80
2767;DHT22;1391;46.742;11.636;2023-02-21T09:20:50;9.10;42.40
2767;DHT22;1391;46.742;11.636;2023-02-21T09:23:22;9.00;41.50
2767;DHT22;1391;46.742;11.636;2023-02-21T09:25:51;8.90;40.40
2767;DHT22;1391;46.742;11.636;2023-02-21T09:28:18;8.80;40.60
2767;DHT22;1391;46.742;11.636;2023-02-21T09:30:47;8.60;39.50
2767;DHT22;1391;46.742;11.636;2023-02-21T09:33:16;8.60;40.20
2767;DHT22;1391;46.742;11.636;2023-02-21T09:35:44;8.80;38.20
2767;DHT22;1391;46.742;11.636;2023-02-21T09:38:13;9.00;39.80
2767;DHT22;1391;46.742;11.636;2023-02-21T09:40:43;9.30;37.20
2767;DHT22;1391;46.742;11.636;2023-02-21T09:43:13;9.50;35.20
2767;DHT22;1391;46.742;11.636;2023-02-21T09:45:42;9.70;35.10
2767;DHT22;1391;46.742;11.636;2023-02-21T09:48:13;9.40;35.20
2767;DHT22;1391;46.742;11.636;2023-02-21T09:50:45;9.70;34.30
2767;DHT22;1391;46.742;11.636;2023-02-21T09:53:18;9.50;37.40
2767;DHT22;1391;46.742;11.636;2023-02-21T09:55:47;9.50;35.70
2767;DHT22;1391;46.742;11.636;2023-02-21T09:58:18;9.50;33.20
2767;DHT22;1391;46.742;11.636;2023-02-21T10:00:46;10.10;31.80
2767;DHT22;1391;46.742;11.636;2023-02-21T10:03:25;10.20;30.80
2767;DHT22;1391;46.742;11.636;2023-02-21T10:06:07;10.30;29.70
2767;DHT22;1391;46.742;11.636;2023-02-21T10:08:44;10.90;29.60
2767;DHT22;1391;46.742;11.636;2023-02-21T10:11:26;10.90;28.60
2767;DHT22;1391;46.742;11.636;2023-02-21T10:14:05;11.40;28.80
2767;DHT22;1391;46.742;11.636;2023-02-21T10:16:46;11.40;28.00
2767;DHT22;1391;46.742;11.636;2023-02-21T10:19:23;11.70;26.60
2767;DHT22;1391;46.742;11.636;2023-02-21T10:21:55;11.20;26.00
2767;DHT22;1391;46.742;11.636;2023-02-21T10:24:27;11.80;26.80
2767;DHT22;1391;46.742;11.636;2023-02-21T10:26:59;12.30;26.20
2767;DHT22;1391;46.742;11.636;2023-02-21T10:29:37;11.80;25.70
2767;DHT22;1391;46.742;11.636;2023-02-21T10:32:07;11.80;25.70
2767;DHT22;1391;46.742;11.636;2023-02-21T10:34:34;11.20;25.40
2767;DHT22;1391;46.742;11.636;2023-02-21T10:37:05;11.50;24.70
2767;DHT22;1391;46.742;11.636;2023-02-21T10:39:50;12.00;25.10
2767;DHT22;1391;46.742;11.636;2023-02-21T10:42:28;11.50;23.80
2767;DHT22;1391;46.742;11.636;2023-02-21T10:44:57;12.10;22.70
2767;DHT22;1391;46.742;11.636;2023-02-21T10:47:32;12.60;20.70
2767;DHT22;1391;46.742;11.636;2023-02-21T10:50:06;12.50;21.30
2767;DHT22;1391;46.742;11.636;2023-02-21T10:52:36;12.60;20.70
2767;DHT22;1391;46.742;11.636;2023-02-21T10:55:12;12.70;19.30
2767;DHT22;1391;46.742;11.636;2023-02-21T10:57:43;12.60;21.00
2767;DHT22;1391;46.742;11.636;2023-02-21T11:00:23;13.40;19.40
2767;DHT22;1391;46.742;11.636;2023-02-21T11:02:54;13.60;19.70
2767;DHT22;1391;46.742;11.636;2023-02-21T11:05:23;13.80;19.60
2767;DHT22;1391;46.742;11.636;2023-02-21T11:07:58;13.80;19.00
2767;DHT22;1391;46.742;11.636;2023-02-21T11:10:31;13.60;19.40
2767;DHT22;1391;46.742;11.636;2023-02-21T11:13:14;14.10;19.60
2767;DHT22;1391;46.742;11.636;2023-02-21T11:15:42;15.40;18.00
2767;DHT22;1391;46.742;11.636;2023-02-21T11:18:14;14.60;17.40
2767;DHT22;1391;46.742;11.636;2023-02-21T11:20:44;15.50;18.10
2767;DHT22;1391;46.742;11.636;2023-02-21T11:23:24;14.20;16.10
2767;DHT22;1391;46.742;11.636;2023-02-21T11:25:59;14.60;18.60
2767;DHT22;1391;46.742;11.636;2023-02-21T11:28:36;15.50;17.00
2767;DHT22;1391;46.742;11.636;2023-02-21T11:31:15;15.50;15.90
2767;DHT22;1391;46.742;11.636;2023-02-21T11:33:51;15.00;16.30
2767;DHT22;1391;46.742;11.636;2023-02-21T11:36:26;15.10;16.80
2767;DHT22;1391;46.742;11.636;2023-02-21T11:39:13;14.60;15.60
2767;DHT22;1391;46.742;11.636;2023-02-21T11:41:47;14.80;16.80
2767;DHT22;1391;46.742;11.636;2023-02-21T11:44:27;14.50;16.50
2767;DHT22;1391;46.742;11.636;2023-02-21T11:47:04;14.80;15.90
2767;DHT22;1391;46.742;11.636;2023-02-21T11:49:40;15.00;17.20
2767;DHT22;1391;46.742;11.636;2023-02-21T11:52:18;14.70;16.40
2767;DHT22;1391;46.742;11.636;2023-02-21T11:54:48;14.60;15.40
2767;DHT22;1391;46.742;11.636;2023-02-21T11:57:23;15.20;14.50
2767;DHT22;1391;46.742;11.636;2023-02-21T11:59:58;15.60;14.30
2767;DHT22;1391;46.742;11.636;2023-02-21T12:05:52;15.90;13.30
2767;DHT22;1391;46.742;11.636;2023-02-21T12:08:36;16.00;13.60
2767;DHT22;1391;46.742;11.636;2023-02-21T12:11:19;15.50;14.10
2767;DHT22;1391;46.742;11.636;2023-02-21T12:14:06;16.00;13.20
2767;DHT22;1391;46.742;11.636;2023-02-21T12:16:49;15.90;14.10
2767;DHT22;1391;46.742;11.636;2023-02-21T12:19:38;15.50;13.80
2767;DHT22;1391;46.742;11.636;2023-02-21T12:22:24;16.00;13.00
2767;DHT22;1391;46.742;11.636;2023-02-21T12:25:13;16.00;12.20
2767;DHT22;1391;46.742;11.636;2023-02-21T12:27:49;16.00;12.30
2767;DHT22;1391;46.742;11.636;2023-02-21T12:30:30;16.50;12.30
2767;DHT22;1391;46.742;11.636;2023-02-21T12:33:17;16.00;11.70
2767;DHT22;1391;46.742;11.636;2023-02-21T12:36:10;16.00;13.20
2767;DHT22;1391;46.742;11.636;2023-02-21T12:39:14;16.00;13.00
2767;DHT22;1391;46.742;11.636;2023-02-21T12:42:11;16.00;11.80
2767;DHT22;1391;46.742;11.636;2023-02-21T12:44:50;16.00;12.00
2767;DHT22;1391;46.742;11.636;2023-02-21T12:47:31;15.70;11.60
2767;DHT22;1391;46.742;11.636;2023-02-21T12:50:04;16.10;11.60
2767;DHT22;1391;46.742;11.636;2023-02-21T12:52:37;16.10;11.70
2767;DHT22;1391;46.742;11.636;2023-02-21T12:55:13;16.00;11.40
2767;DHT22;1391;46.742;11.636;2023-02-21T12:57:50;15.70;11.30
2767;DHT22;1391;46.742;11.636;2023-02-21T13:00:22;15.90;11.50
2767;DHT22;1391;46.742;11.636;2023-02-21T13:02:58;15.90;11.60
2767;DHT22;1391;46.742;11.636;2023-02-21T13:05:35;15.80;11.50
2767;DHT22;1391;46.742;11.636;2023-02-21T13:08:13;16.00;10.90
2767;DHT22;1391;46.742;11.636;2023-02-21T13:10:51;16.40;10.40
2767;DHT22;1391;46.742;11.636;2023-02-21T13:13:24;16.10;11.20
2767;DHT22;1391;46.742;11.636;2023-02-21T13:15:57;15.80;11.20
2767;DHT22;1391;46.742;11.636;2023-02-21T13:18:31;16.00;11.10
2767;DHT22;1391;46.742;11.636;2023-02-21T13:21:08;16.00;12.50
2767;DHT22;1391;46.742;11.636;2023-02-21T13:27:28;15.20;12.80
2767;DHT22;1391;46.742;11.636;2023-02-21T13:30:11;16.00;14.40
2767;DHT22;1391;46.742;11.636;2023-02-21T13:32:49;15.20;12.80
2767;DHT22;1391;46.742;11.636;2023-02-21T13:35:25;16.00;13.30
2767;DHT22;1391;46.742;11.636;2023-02-21T13:37:55;15.80;11.50
2767;DHT22;1391;46.742;11.636;2023-02-21T13:40:31;15.10;11.60
2767;DHT22;1391;46.742;11.636;2023-02-21T13:43:05;15.60;13.90
2767;DHT22;1391;46.742;11.636;2023-02-21T13:45:36;15.60;14.60
2767;DHT22;1391;46.742;11.636;2023-02-21T13:48:27;15.10;15.40
2767;DHT22;1391;46.742;11.636;2023-02-21T13:50:57;15.10;15.20
2767;DHT22;1391;46.742;11.636;2023-02-21T13:53:28;15.50;14.40
2767;DHT22;1391;46.742;11.636;2023-02-21T13:56:16;15.10;15.50
2767;DHT22;1391;46.742;11.636;2023-02-21T13:58:46;15.10;14.90
2767;DHT22;1391;46.742;11.636;2023-02-21T14:01:44;15.00;15.90
2767;DHT22;1391;46.742;11.636;2023-02-21T14:04:48;14.60;14.80
2767;DHT22;1391;46.742;11.636;2023-02-21T14:07:44;14.60;14.40
2767;DHT22;1391;46.742;11.636;2023-02-21T14:10:29;15.00;15.90
2767;DHT22;1391;46.742;11.636;2023-02-21T14:13:02;14.60;16.30
2767;DHT22;1391;46.742;11.636;2023-02-21T14:15:40;14.70;17.10
2767;DHT22;1391;46.742;11.636;2023-02-21T14:18:21;14.50;17.20
2767;DHT22;1391;46.742;11.636;2023-02-21T14:20:53;14.80;17.60
2767;DHT22;1391;46.742;11.636;2023-02-21T14:23:38;14.70;18.00
2767;DHT22;1391;46.742;11.636;2023-02-21T14:26:36;14.70;18.00
2767;DHT22;1391;46.742;11.636;2023-02-21T14:29:26;14.30;17.80
2767;DHT22;1391;46.742;11.636;2023-02-21T14:32:14;14.10;18.30
2767;DHT22;1391;46.742;11.636;2023-02-21T14:34:58;14.00;18.60
2767;DHT22;1391;46.742;11.636;2023-02-21T14:37:32;14.10;19.20
2767;DHT22;1391;46.742;11.636;2023-02-21T14:40:18;14.20;19.10
2767;DHT22;1391;46.742;11.636;2023-02-21T14:43:00;13.50;18.90
2767;DHT22;1391;46.742;11.636;2023-02-21T14:45:50;13.70;19.30
2767;DHT22;1391;46.742;11.636;2023-02-21T14:48:43;13.50;19.50
2767;DHT22;1391;46.742;11.636;2023-02-21T15:01:04;12.20;22.20
2767;DHT22;1391;46.742;11.636;2023-02-21T15:03:40;12.10;23.70
2767;DHT22;1391;46.742;11.636;2023-02-21T15:06:13;12.10;24.00
2767;DHT22;1391;46.742;11.636;2023-02-21T15:08:47;11.60;23.50
2767;DHT22;1391;46.742;11.636;2023-02-21T15:11:21;11.70;24.20
2767;DHT22;1391;46.742;11.636;2023-02-21T15:14:14;11.30;24.40
2767;DHT22;1391;46.742;11.636;2023-02-21T15:16:49;11.20;24.70
2767;DHT22;1391;46.742;11.636;2023-02-21T15:19:23;11.00;23.20
2767;DHT22;1391;46.742;11.636;2023-02-21T15:22:21;11.20;25.20
2767;DHT22;1391;46.742;11.636;2023-02-21T15:25:12;10.80;25.70
2767;DHT22;1391;46.742;11.636;2023-02-21T15:27:54;10.40;25.10
2767;DHT22;1391;46.742;11.636;2023-02-21T15:33:21;10.50;26.20
2767;DHT22;1391;46.742;11.636;2023-02-21T15:35:53;10.50;25.30
2767;DHT22;1391;46.742;11.636;2023-02-21T15:38:27;10.50;26.20
2767;DHT22;1391;46.742;11.636;2023-02-21T15:41:01;10.30;26.60
2767;DHT22;1391;46.742;11.636;2023-02-21T15:43:45;9.60;28.60
2767;DHT22;1391;46.742;11.636;2023-02-21T15:46:19;9.50;29.90
2767;DHT22;1391;46.742;11.636;2023-02-21T15:48:48;9.10;29.50
2767;DHT22;1391;46.742;11.636;2023-02-21T15:51:16;9.60;28.50
2767;DHT22;1391;46.742;11.636;2023-02-21T15:54:09;9.60;28.90
2767;DHT22;1391;46.742;11.636;2023-02-21T15:56:59;9.60;29.10
2767;DHT22;1391;46.742;11.636;2023-02-21T15:59:32;9.50;29.80
2767;DHT22;1391;46.742;11.636;2023-02-21T16:02:13;9.50;29.90
2767;DHT22;1391;46.742;11.636;2023-02-21T16:04:43;9.10;30.60
2767;DHT22;1391;46.742;11.636;2023-02-21T16:07:19;9.10;30.90
2767;DHT22;1391;46.742;11.636;2023-02-21T16:09:49;8.80;31.70
2767;DHT22;1391;46.742;11.636;2023-02-21T16:12:32;8.80;32.60
2767;DHT22;1391;46.742;11.636;2023-02-21T16:15:05;8.90;31.80
2767;DHT22;1391;46.742;11.636;2023-02-21T16:17:37;8.80;32.20
2767;DHT22;1391;46.742;11.636;2023-02-21T16:20:14;8.70;33.20
2767;DHT22;1391;46.742;11.636;2023-02-21T16:22:44;8.60;33.60
2767;DHT22;1391;46.742;11.636;2023-02-21T16:25:17;8.30;35.00
2767;DHT22;1391;46.742;11.636;2023-02-21T16:27:49;8.20;35.50
2767;DHT22;1391;46.742;11.636;2023-02-21T16:30:18;8.20;35.60
2767;DHT22;1391;46.742;11.636;2023-02-21T16:32:49;7.90;35.40
2767;DHT22;1391;46.742;11.636;2023-02-21T16:35:20;8.30;36.00
2767;DHT22;1391;46.742;11.636;2023-02-21T16:37:52;7.90;36.60
2767;DHT22;1391;46.742;11.636;2023-02-21T16:40:22;7.70;36.50
2767;DHT22;1391;46.742;11.636;2023-02-21T16:42:56;7.80;37.20
2767;DHT22;1391;46.742;11.636;2023-02-21T16:45:25;8.00;37.90
2767;DHT22;1391;46.742;11.636;2023-02-21T16:47:57;7.90;38.10
2767;DHT22;1391;46.742;11.636;2023-02-21T16:50:29;7.50;37.90
2767;DHT22;1391;46.742;11.636;2023-02-21T16:52:57;7.50;37.70
2767;DHT22;1391;46.742;11.636;2023-02-21T16:55:26;7.00;39.10
2767;DHT22;1391;46.742;11.636;2023-02-21T16:57:56;7.00;39.40
2767;DHT22;1391;46.742;11.636;2023-02-21T17:00:27;7.20;39.90
2767;DHT22;1391;46.742;11.636;2023-02-21T17:02:56;7.20;40.90
2767;DHT22;1391;46.742;11.636;2023-02-21T17:05:23;7.20;40.70
2767;DHT22;1391;46.742;11.636;2023-02-21T17:07:52;7.20;40.70
2767;DHT22;1391;46.742;11.636;2023-02-21T17:10:22;7.20;41.40
2767;DHT22;1391;46.742;11.636;2023-02-21T17:12:49;6.90;41.60
2767;DHT22;1391;46.742;11.636;2023-02-21T17:15:17;7.20;41.60
2767;DHT22;1391;46.742;11.636;2023-02-21T17:17:46;6.50;41.60
2767;DHT22;1391;46.742;11.636;2023-02-21T17:20:18;6.70;43.00
2767;DHT22;1391;46.742;11.636;2023-02-21T17:22:45;6.80;43.30
2767;DHT22;1391;46.742;11.636;2023-02-21T17:25:13;6.40;42.60
2767;DHT22;1391;46.742;11.636;2023-02-21T17:27:41;6.40;42.60
2767;DHT22;1391;46.742;11.636;2023-02-21T17:30:11;6.40;42.90
2767;DHT22;1391;46.742;11.636;2023-02-21T17:32:39;6.10;43.20
2767;DHT22;1391;46.742;11.636;2023-02-21T17:35:08;6.70;44.20
2767;DHT22;1391;46.742;11.636;2023-02-21T17:37:41;6.20;44.20
2767;DHT22;1391;46.742;11.636;2023-02-21T17:40:09;6.20;44.80
2767;DHT22;1391;46.742;11.636;2023-02-21T17:42:38;6.40;45.60
2767;DHT22;1391;46.742;11.636;2023-02-21T17:45:07;6.10;46.00
2767;DHT22;1391;46.742;11.636;2023-02-21T17:47:35;6.20;46.30
2767;DHT22;1391;46.742;11.636;2023-02-21T17:50:03;5.70;46.60
2767;DHT22;1391;46.742;11.636;2023-02-21T17:52:33;6.00;46.10
2767;DHT22;1391;46.742;11.636;2023-02-21T17:55:02;6.30;46.60
2767;DHT22;1391;46.742;11.636;2023-02-21T17:57:32;5.80;48.10
2767;DHT22;1391;46.742;11.636;2023-02-21T18:00:04;6.00;48.20
2767;DHT22;1391;46.742;11.636;2023-02-21T18:02:37;5.70;48.00
2767;DHT22;1391;46.742;11.636;2023-02-21T18:05:05;5.40;48.10
2767;DHT22;1391;46.742;11.636;2023-02-21T18:07:34;5.40;48.60
2767;DHT22;1391;46.742;11.636;2023-02-21T18:10:03;5.70;48.00
2767;DHT22;1391;46.742;11.636;2023-02-21T18:12:32;5.70;47.30
2767;DHT22;1391;46.742;11.636;2023-02-21T18:14:59;5.70;48.70
2767;DHT22;1391;46.742;11.636;2023-02-21T18:17:27;5.60;49.00
2767;DHT22;1391;46.742;11.636;2023-02-21T18:19:54;5.40;48.60
2767;DHT22;1391;46.742;11.636;2023-02-21T18:22:21;5.40;48.30
2767;DHT22;1391;46.742;11.636;2023-02-21T18:24:49;5.60;48.90
2767;DHT22;1391;46.742;11.636;2023-02-21T18:27:17;5.40;49.50
2767;DHT22;1391;46.742;11.636;2023-02-21T18:29:44;5.00;51.10
2767;DHT22;1391;46.742;11.636;2023-02-21T18:32:12;5.10;50.70
2767;DHT22;1391;46.742;11.636;2023-02-21T18:34:41;5.40;50.80
2767;DHT22;1391;46.742;11.636;2023-02-21T18:37:08;5.10;50.40
2767;DHT22;1391;46.742;11.636;2023-02-21T18:39:36;5.10;50.70
2767;DHT22;1391;46.742;11.636;2023-02-21T18:42:03;5.10;52.30
2767;DHT22;1391;46.742;11.636;2023-02-21T18:44:32;4.90;52.90
2767;DHT22;1391;46.742;11.636;2023-02-21T18:46:59;4.90;52.90
2767;DHT22;1391;46.742;11.636;2023-02-21T18:49:27;4.90;52.30
2767;DHT22;1391;46.742;11.636;2023-02-21T18:51:57;4.60;52.20
2767;DHT22;1391;46.742;11.636;2023-02-21T18:54:25;4.60;51.40
2767;DHT22;1391;46.742;11.636;2023-02-21T18:56:53;4.80;52.40